• Join FlightAware (Why Join?)
  • Login
  • US Flag 
08:25PM EST


 

Airport Tracker/Info


-or-


 

Live Flight TrackerFlight Track Log ✈ N959RP ✈ 30-Apr-2013 ✈ KMSN - KGRR

Flight Track Log - Related Links

Times and Time Zones

All times are in EDT time to prevent confusion due to time zone crossing. See the N959RP flight status page for this flight to view local times or setup timezone preferences in your user account.

Time Position Orientation Groundspeed Altitude Reporting Facility
EDT Latitude Longitude Course Direction KTS MPH feet Rate Location/Type
05:39PM 43.0908 -89.2261 101° East 290 334 7,100  Level Chicago Center
05:40PM 43.0861 -89.0872 93° East 317 365 11,000 1,920 Climbing Chicago Center
05:41PM 43.0792 -88.9422 94° East 379 436 11,200 1,800 Climbing Chicago Center
05:42PM 43.0728 -88.7914 93° East 396 456 14,800 2,820 Climbing Chicago Center
05:43PM 43.0653 -88.6253 93° East 436 502 17,100 1,020 Climbing Chicago Center
05:44PM 43.0881 -88.6322 96° East  Level FlightAware Approximate
05:44PM 43.0572 -88.4600 94° East 440 506 17,000  Level Chicago Center
05:46PM 43.0492 -88.2756 93° East 424 488 17,000  Level Chicago Center
05:47PM 43.0414 -88.1183 94° East 419 482 17,000  Level Chicago Center
05:48PM 43.0331 -87.9636 94° East 413 475 17,000 -60 Level Chicago Center
05:49PM 43.0247 -87.8069 94° East 413 475 16,900 -60 Descending Chicago Center
05:50PM 43.0150 -87.6244 94° East 414 476 16,900  Level Chicago Center
05:51PM 43.0072 -87.4706 94° East 409 471 16,900  Level Chicago Center
05:52PM 42.9983 -87.3164 94° East 411 473 16,900  Level Chicago Center
05:53PM 42.9894 -87.1625 94° East 408 470 16,900  Level Chicago Center
05:54PM 42.9803 -87.0050 94° East 415 478 16,900  Level Chicago Center
05:55PM 42.9703 -86.8494 95° East 414 476 16,900 -780 Level Chicago Center
05:56PM 42.9589 -86.6661 95° East 410 472 15,400 -1,620 Descending Chicago Center
05:57PM 42.9492 -86.5117 95° East 410 472 13,600 -1,800 Descending Chicago Center
05:58PM 42.9386 -86.3608 95° East 403 464 11,800 -1,740 Descending Chicago Center
05:59PM 42.9294 -86.2158 95° East 391 450 10,100 -1,380 Descending Chicago Center
06:00PM 42.9328 -86.0939 88° East 325 374 9,000 -1,620 Descending Chicago Center
06:01PM 42.9478 -85.9592 81° East 307 353 6,800 -1,800 Descending Chicago Center
06:02PM 42.9614 -85.8522 80° East 296 341 5,300 -1,500 Descending Chicago Center
06:03PM 42.9769 -85.7494 78° East 286 329 3,700 -1,440 Descending Chicago Center
06:04PM 42.9903 -85.6508 79° East 276 318 2,400 -660 Descending Chicago Center
06:05PM 42.9711 -85.5656 107° East 219 252 2,400 -240 Level Chicago Center
06:06PM 42.9458 -85.5303 134° Southeast 166 191 2,000 -540 Descending Chicago Center
06:07PM 42.9125 -85.5228 171° South 135 155 1,400 -540 Descending Chicago Center
06:08PM 42.8853 -85.5175 172° South 125 144 1,000 -420 Descending Chicago Center
06:10PM 42.8808 -85.5228 109° East  Level Estimated